createdAt,value
2023-06-27T00:00:35.752Z,9.70
2023-06-27T00:03:27.672Z,9.80
2023-06-27T00:06:01.892Z,9.40
2023-06-27T00:08:34.605Z,10.00
2023-06-27T00:11:07.367Z,10.50
2023-06-27T00:13:42.626Z,9.90
2023-06-27T00:16:15.082Z,10.30
2023-06-27T00:18:50.209Z,10.20
2023-06-27T00:21:30.144Z,9.30
2023-06-27T00:24:02.240Z,10.60
2023-06-27T00:26:34.729Z,8.70
2023-06-27T00:29:07.529Z,8.40
2023-06-27T00:31:39.664Z,8.70
2023-06-27T00:34:11.705Z,8.40
2023-06-27T00:36:44.995Z,8.70
2023-06-27T00:39:16.858Z,7.60
2023-06-27T00:41:48.600Z,8.20
2023-06-27T00:44:20.427Z,8.10
2023-06-27T00:46:53.114Z,7.10
2023-06-27T00:49:25.055Z,7.30
2023-06-27T00:51:57.562Z,7.80
2023-06-27T00:54:29.717Z,8.50
2023-06-27T00:57:02.391Z,7.70
2023-06-27T00:59:34.862Z,7.60
2023-06-27T01:02:10.040Z,7.30
2023-06-27T01:04:41.924Z,7.60
2023-06-27T01:07:18.965Z,7.10
2023-06-27T01:09:53.584Z,7.00
2023-06-27T01:12:30.153Z,6.70
2023-06-27T01:15:03.896Z,6.90
2023-06-27T01:17:38.348Z,6.30
2023-06-27T01:20:12.360Z,6.30
2023-06-27T01:22:47.113Z,6.30
2023-06-27T01:25:19.579Z,6.80
2023-06-27T01:27:51.561Z,5.60
2023-06-27T01:30:23.431Z,5.70
2023-06-27T01:33:00.276Z,6.20
2023-06-27T01:35:35.548Z,6.90
2023-06-27T01:38:12.897Z,5.60
2023-06-27T01:40:45.505Z,5.70
2023-06-27T01:43:18.145Z,6.20
2023-06-27T01:45:50.076Z,5.70
2023-06-27T01:48:22.207Z,5.60
2023-06-27T01:50:56.778Z,6.40
2023-06-27T01:53:28.814Z,5.90
2023-06-27T01:56:00.822Z,6.20
2023-06-27T01:58:33.122Z,6.60
2023-06-27T02:01:05.016Z,5.50
2023-06-27T02:03:37.210Z,5.80
2023-06-27T02:06:09.108Z,6.20
2023-06-27T02:08:41.216Z,5.80
2023-06-27T02:11:13.131Z,6.00
2023-06-27T02:13:45.332Z,5.80
2023-06-27T02:16:17.134Z,6.30
2023-06-27T02:18:49.064Z,6.00
2023-06-27T02:21:20.986Z,5.90
2023-06-27T02:23:53.200Z,5.40
2023-06-27T02:26:25.070Z,5.60
2023-06-27T02:28:57.096Z,6.10
2023-06-27T02:31:29.119Z,6.00
2023-06-27T02:34:01.558Z,6.00
2023-06-27T02:36:33.790Z,5.80
2023-06-27T02:39:06.395Z,6.20
2023-06-27T02:41:38.331Z,6.10
2023-06-27T02:44:10.331Z,6.30
2023-06-27T02:46:42.255Z,6.00
2023-06-27T02:49:14.226Z,6.00
2023-06-27T02:51:46.038Z,7.10
2023-06-27T02:54:17.980Z,6.50
2023-06-27T02:56:49.955Z,6.20
2023-06-27T02:59:21.910Z,6.70
2023-06-27T03:01:53.927Z,7.40
2023-06-27T03:04:26.543Z,6.70
2023-06-27T03:06:59.126Z,7.00
2023-06-27T03:09:31.406Z,6.40
2023-06-27T03:12:03.273Z,7.60
2023-06-27T03:14:35.203Z,7.30
2023-06-27T03:17:07.365Z,7.30
2023-06-27T03:19:44.636Z,7.20
2023-06-27T03:22:16.731Z,6.70
2023-06-27T03:24:49.268Z,7.80
2023-06-27T03:27:23.691Z,7.70
2023-06-27T03:29:55.833Z,7.60
2023-06-27T03:32:27.654Z,7.90
2023-06-27T03:34:59.712Z,7.30
2023-06-27T03:37:31.660Z,7.70
2023-06-27T03:40:04.318Z,8.00
2023-06-27T03:42:36.164Z,8.20
2023-06-27T03:45:09.819Z,9.20
2023-06-27T03:47:43.755Z,8.80
2023-06-27T03:50:15.935Z,8.50
2023-06-27T03:52:47.750Z,8.20
2023-06-27T03:55:19.891Z,7.90
2023-06-27T03:57:51.755Z,8.10
2023-06-27T04:00:23.646Z,8.80
2023-06-27T04:02:55.500Z,8.90
2023-06-27T04:05:27.661Z,8.40
2023-06-27T04:07:59.470Z,8.60
2023-06-27T04:10:33.570Z,9.20
2023-06-27T04:13:05.420Z,8.60
2023-06-27T04:15:41.165Z,8.60
2023-06-27T04:18:13.333Z,8.50
2023-06-27T04:20:45.168Z,8.90
2023-06-27T04:23:17.035Z,8.00
2023-06-27T04:26:04.439Z,7.90
2023-06-27T04:28:36.857Z,8.60
2023-06-27T04:31:10.701Z,7.60
2023-06-27T04:33:46.758Z,7.50
2023-06-27T04:36:21.724Z,7.40
2023-06-27T04:38:53.763Z,7.90
2023-06-27T04:41:30.339Z,7.10
2023-06-27T04:44:02.718Z,6.20
2023-06-27T04:46:34.821Z,6.40
2023-06-27T04:49:06.812Z,6.90
2023-06-27T04:51:40.504Z,6.30
2023-06-27T04:54:12.486Z,6.80
2023-06-27T04:56:45.054Z,7.90
2023-06-27T04:59:18.658Z,6.90
2023-06-27T05:01:50.625Z,6.80
2023-06-27T05:04:22.519Z,7.50
2023-06-27T05:06:55.393Z,7.00
2023-06-27T05:09:27.345Z,8.10
2023-06-27T05:11:59.526Z,8.10
2023-06-27T05:14:31.243Z,8.00
2023-06-27T05:17:03.439Z,7.80
2023-06-27T05:19:35.359Z,7.70
2023-06-27T05:22:07.698Z,7.80
2023-06-27T05:24:39.726Z,7.90
2023-06-27T05:27:12.000Z,8.10
2023-06-27T05:29:43.784Z,8.00
2023-06-27T05:32:15.880Z,9.30
2023-06-27T05:34:49.816Z,9.10
2023-06-27T05:37:22.022Z,8.60
2023-06-27T05:39:54.010Z,8.40
2023-06-27T05:42:25.893Z,8.60
2023-06-27T05:44:57.661Z,9.60
2023-06-27T05:47:29.727Z,10.00
2023-06-27T05:50:02.171Z,8.10
2023-06-27T05:52:34.343Z,8.40
2023-06-27T05:55:07.326Z,6.90
2023-06-27T05:57:39.290Z,5.50
2023-06-27T06:00:14.827Z,4.60
2023-06-27T06:02:47.312Z,4.90
2023-06-27T06:05:19.725Z,3.70
2023-06-27T06:07:51.863Z,3.70
2023-06-27T06:10:25.468Z,3.80
2023-06-27T06:12:57.268Z,3.30
2023-06-27T06:15:29.368Z,3.50
2023-06-27T06:18:01.303Z,3.40
2023-06-27T06:20:33.316Z,4.50
2023-06-27T06:23:05.490Z,3.60
2023-06-27T06:25:37.706Z,3.40
2023-06-27T06:28:09.772Z,4.00
2023-06-27T06:30:41.640Z,3.00
2023-06-27T06:33:13.868Z,3.40
2023-06-27T06:35:45.638Z,3.50
2023-06-27T06:38:17.584Z,4.10
2023-06-27T06:40:49.426Z,3.30
2023-06-27T06:43:21.335Z,4.20
2023-06-27T06:45:55.281Z,3.90
2023-06-27T06:48:27.289Z,4.40
2023-06-27T06:51:00.211Z,4.80
2023-06-27T06:53:32.571Z,4.90
2023-06-27T06:56:04.508Z,5.00
2023-06-27T06:58:37.611Z,4.30
2023-06-27T07:01:09.814Z,5.00
2023-06-27T07:03:42.757Z,4.40
2023-06-27T07:06:14.654Z,5.10
2023-06-27T07:08:46.577Z,4.90
2023-06-27T07:11:18.575Z,5.60
2023-06-27T07:13:51.016Z,5.10
2023-06-27T07:16:23.009Z,5.40
2023-06-27T07:18:55.290Z,5.40
2023-06-27T07:21:27.013Z,5.80
2023-06-27T07:23:58.941Z,5.70
2023-06-27T07:26:30.870Z,5.70
2023-06-27T07:29:02.835Z,5.70
2023-06-27T07:31:34.799Z,5.70
2023-06-27T07:34:07.016Z,5.00
2023-06-27T07:36:39.735Z,5.10
2023-06-27T07:39:11.767Z,4.80
2023-06-27T07:41:43.989Z,5.00
2023-06-27T07:44:15.979Z,4.50
2023-06-27T07:46:47.825Z,4.20
2023-06-27T07:49:19.915Z,4.20
2023-06-27T07:51:52.898Z,4.70
2023-06-27T07:54:27.971Z,4.20
2023-06-27T07:56:59.870Z,3.60
2023-06-27T07:59:32.069Z,4.40
2023-06-27T08:02:04.013Z,4.10
2023-06-27T08:04:35.943Z,4.90
2023-06-27T08:07:11.460Z,3.70
2023-06-27T08:09:44.211Z,3.60
2023-06-27T08:12:16.160Z,3.50
2023-06-27T08:14:48.875Z,3.70
2023-06-27T08:17:21.002Z,3.70
2023-06-27T08:19:53.007Z,3.50
2023-06-27T08:22:25.448Z,3.30
2023-06-27T08:24:57.459Z,3.40
2023-06-27T08:27:29.659Z,4.00
2023-06-27T08:30:01.540Z,3.00
2023-06-27T08:32:33.664Z,3.20
2023-06-27T08:35:08.103Z,3.60
2023-06-27T08:37:40.178Z,3.50
2023-06-27T08:40:15.580Z,3.80
2023-06-27T08:42:47.498Z,3.60
2023-06-27T08:45:19.649Z,2.90
2023-06-27T08:47:52.269Z,2.70
2023-06-27T08:50:25.566Z,3.00
2023-06-27T08:53:00.059Z,2.80
2023-06-27T08:55:37.266Z,2.40
2023-06-27T08:58:12.993Z,2.60
2023-06-27T09:00:44.913Z,2.60
2023-06-27T09:03:17.049Z,3.10
2023-06-27T09:05:49.851Z,2.30
2023-06-27T09:08:22.872Z,2.10
2023-06-27T09:10:55.123Z,1.60
2023-06-27T09:13:27.637Z,2.30
2023-06-27T09:15:59.768Z,2.00
2023-06-27T09:18:31.731Z,2.20
2023-06-27T09:21:04.326Z,2.30
2023-06-27T09:23:36.612Z,2.20
2023-06-27T09:26:12.679Z,1.70
2023-06-27T09:28:52.012Z,1.80
2023-06-27T09:31:24.752Z,2.60
2023-06-27T09:34:09.537Z,1.70
2023-06-27T09:39:18.802Z,2.10
2023-06-27T09:41:51.820Z,2.00
2023-06-27T09:44:26.452Z,2.20
2023-06-27T09:46:59.356Z,2.00
2023-06-27T09:49:33.147Z,2.10
2023-06-27T09:52:07.874Z,2.00
2023-06-27T09:54:44.549Z,1.60
2023-06-27T09:57:22.782Z,1.90
2023-06-27T10:00:00.730Z,2.20
2023-06-27T10:02:34.474Z,2.00
2023-06-27T10:07:38.046Z,1.50
2023-06-27T10:10:12.422Z,2.00
2023-06-27T10:12:45.177Z,1.90
2023-06-27T10:15:18.136Z,1.50
2023-06-27T10:17:50.719Z,1.50
2023-06-27T10:20:23.131Z,1.50
2023-06-27T10:22:55.577Z,1.10
2023-06-27T10:25:29.041Z,1.50
2023-06-27T10:28:09.295Z,1.30
2023-06-27T10:30:48.793Z,1.40
2023-06-27T10:33:30.354Z,1.50
2023-06-27T10:36:04.643Z,1.40
2023-06-27T10:38:37.658Z,1.50
2023-06-27T10:41:35.008Z,1.40
2023-06-27T10:44:14.090Z,1.70
2023-06-27T10:46:47.153Z,1.20
2023-06-27T10:49:18.855Z,1.60
2023-06-27T10:51:50.598Z,1.50
2023-06-27T10:54:22.793Z,1.30
2023-06-27T10:56:57.931Z,1.70
2023-06-27T10:59:30.081Z,1.60
2023-06-27T11:02:06.140Z,2.00
2023-06-27T11:04:44.034Z,1.50
2023-06-27T11:07:20.526Z,1.10
2023-06-27T11:09:56.552Z,1.80
2023-06-27T11:12:37.881Z,1.60
2023-06-27T11:15:11.430Z,1.40
2023-06-27T11:17:43.385Z,1.40
2023-06-27T11:20:15.794Z,1.30
2023-06-27T11:22:48.568Z,1.50
2023-06-27T11:25:22.002Z,1.10
2023-06-27T11:28:00.566Z,1.30
2023-06-27T11:30:34.649Z,1.70
2023-06-27T11:33:07.084Z,1.70
2023-06-27T11:35:41.017Z,1.30
2023-06-27T11:38:14.191Z,1.40
2023-06-27T11:40:53.292Z,1.20
2023-06-27T11:43:25.434Z,2.10
2023-06-27T11:45:58.585Z,1.30
2023-06-27T11:48:30.758Z,2.00
2023-06-27T11:51:08.774Z,1.90
2023-06-27T11:53:41.770Z,2.30
2023-06-27T11:56:22.019Z,1.50
2023-06-27T11:58:58.749Z,1.70
2023-06-27T12:01:34.635Z,1.30
2023-06-27T12:04:16.531Z,2.20
2023-06-27T12:06:50.273Z,1.70
2023-06-27T12:09:28.767Z,1.70
2023-06-27T12:12:05.152Z,1.60
2023-06-27T12:14:37.572Z,1.60
2023-06-27T12:17:23.541Z,2.00
2023-06-27T12:19:55.279Z,1.80
2023-06-27T12:22:27.190Z,1.60
2023-06-27T12:24:59.182Z,2.90
2023-06-27T12:27:37.362Z,2.00
2023-06-27T12:30:13.294Z,2.00
2023-06-27T12:32:45.215Z,1.90
2023-06-27T12:35:19.263Z,1.70
2023-06-27T12:37:51.615Z,1.60
2023-06-27T12:40:24.374Z,1.60
2023-06-27T12:42:59.512Z,1.60
2023-06-27T12:45:39.210Z,1.60
2023-06-27T12:48:14.297Z,1.80
2023-06-27T12:50:46.166Z,1.60
2023-06-27T12:53:18.622Z,2.00
2023-06-27T12:55:50.631Z,1.30
2023-06-27T12:58:22.521Z,1.90
2023-06-27T13:00:56.365Z,1.70
2023-06-27T13:03:28.377Z,1.60
2023-06-27T13:06:00.461Z,1.40
2023-06-27T13:08:32.371Z,1.70
2023-06-27T13:11:04.516Z,1.90
2023-06-27T13:13:37.842Z,1.10
2023-06-27T13:16:16.004Z,1.50
2023-06-27T13:18:48.416Z,1.70
2023-06-27T13:21:20.849Z,1.40
2023-06-27T13:23:53.581Z,2.20
2023-06-27T13:26:25.570Z,1.50
2023-06-27T13:28:58.014Z,1.10
2023-06-27T13:31:30.481Z,1.30
2023-06-27T13:34:02.699Z,1.00
2023-06-27T13:36:34.952Z,1.70
2023-06-27T13:39:07.134Z,1.70
2023-06-27T13:41:39.057Z,1.10
2023-06-27T13:44:12.572Z,1.80
2023-06-27T13:46:44.801Z,1.60
2023-06-27T13:49:16.711Z,2.50
2023-06-27T13:51:48.671Z,2.10
2023-06-27T13:54:20.682Z,2.30
2023-06-27T13:56:52.747Z,2.10
2023-06-27T13:59:24.740Z,2.00
2023-06-27T14:01:57.078Z,1.60
2023-06-27T14:04:28.871Z,1.80
2023-06-27T14:07:01.582Z,1.60
2023-06-27T14:09:33.697Z,1.40
2023-06-27T14:12:08.673Z,1.40
2023-06-27T14:14:40.659Z,1.40
2023-06-27T14:17:12.609Z,1.10
2023-06-27T14:19:44.831Z,1.60
2023-06-27T14:22:16.913Z,1.50
2023-06-27T14:24:49.165Z,1.70
2023-06-27T14:27:21.616Z,1.50
2023-06-27T14:29:53.617Z,1.60
2023-06-27T14:32:26.082Z,1.80
2023-06-27T14:34:58.103Z,1.70
2023-06-27T14:37:30.061Z,1.80
2023-06-27T14:40:02.060Z,1.90
2023-06-27T14:42:34.240Z,1.30
2023-06-27T14:45:07.126Z,1.50
2023-06-27T14:47:39.200Z,1.80
2023-06-27T14:50:12.538Z,1.50
2023-06-27T14:52:44.511Z,1.90
2023-06-27T14:55:16.571Z,1.40
2023-06-27T14:57:48.561Z,1.50
2023-06-27T15:00:21.531Z,1.50
2023-06-27T15:02:53.632Z,1.70
2023-06-27T15:05:26.225Z,2.00
2023-06-27T15:07:58.029Z,2.00
2023-06-27T15:10:30.246Z,2.10
2023-06-27T15:13:02.467Z,1.80
2023-06-27T15:15:34.678Z,2.10
2023-06-27T15:18:06.882Z,2.10
2023-06-27T15:20:39.076Z,1.80
2023-06-27T15:23:12.263Z,1.80
2023-06-27T15:25:47.234Z,1.70
2023-06-27T15:28:19.423Z,1.60
2023-06-27T15:30:51.589Z,1.70
2023-06-27T15:33:23.506Z,1.60
2023-06-27T15:35:55.543Z,1.50
2023-06-27T15:38:27.595Z,1.70
2023-06-27T15:41:01.182Z,1.50
2023-06-27T15:43:36.968Z,1.90
2023-06-27T15:46:09.041Z,1.60
2023-06-27T15:48:41.411Z,1.90
2023-06-27T15:51:13.250Z,1.80
2023-06-27T15:53:45.027Z,1.70
2023-06-27T15:56:18.005Z,1.80
2023-06-27T15:58:50.225Z,1.30
2023-06-27T16:01:22.125Z,1.60
2023-06-27T16:03:54.207Z,1.60
2023-06-27T16:06:27.793Z,1.50
2023-06-27T16:08:59.814Z,1.50
2023-06-27T16:11:32.740Z,1.90
2023-06-27T16:14:06.086Z,1.60
2023-06-27T16:19:09.103Z,1.90
2023-06-27T16:21:41.818Z,2.90
2023-06-27T16:24:13.721Z,40.30
2023-06-27T16:26:46.327Z,8.40
2023-06-27T16:29:18.380Z,1.90
2023-06-27T16:31:51.664Z,1.80
2023-06-27T16:34:23.814Z,1.60
2023-06-27T16:36:55.747Z,1.50
2023-06-27T16:39:27.583Z,1.90
2023-06-27T16:41:59.560Z,2.20
2023-06-27T16:44:31.736Z,2.00
2023-06-27T16:47:03.908Z,2.10
2023-06-27T16:49:35.858Z,2.00
2023-06-27T16:52:09.529Z,2.40
2023-06-27T16:54:41.529Z,2.00
2023-06-27T16:57:13.673Z,1.70
2023-06-27T16:59:45.535Z,2.60
2023-06-27T17:02:17.562Z,2.10
2023-06-27T17:04:49.617Z,2.00
2023-06-27T17:07:21.835Z,2.20
2023-06-27T17:09:53.763Z,2.10
2023-06-27T17:12:26.062Z,2.10
2023-06-27T17:14:58.316Z,2.30
2023-06-27T17:17:30.154Z,2.20
2023-06-27T17:20:02.168Z,2.60
2023-06-27T17:22:34.106Z,3.80
2023-06-27T17:25:06.648Z,5.10
2023-06-27T17:27:38.866Z,5.90
2023-06-27T17:30:13.120Z,4.40
2023-06-27T17:32:47.302Z,5.60
2023-06-27T17:35:19.527Z,4.60
2023-06-27T17:37:51.325Z,3.90
2023-06-27T17:40:23.771Z,3.60
2023-06-27T17:42:55.847Z,3.90
2023-06-27T17:45:29.594Z,3.20
2023-06-27T17:48:02.276Z,3.30
2023-06-27T17:50:34.872Z,3.00
2023-06-27T17:53:07.377Z,2.50
2023-06-27T17:55:39.500Z,2.50
2023-06-27T17:58:12.216Z,2.60
2023-06-27T18:00:45.034Z,2.20
2023-06-27T18:03:17.498Z,1.90
2023-06-27T18:05:50.297Z,2.10
2023-06-27T18:08:27.233Z,2.80
2023-06-27T18:11:04.488Z,2.20
2023-06-27T18:13:37.031Z,2.00
2023-06-27T18:16:10.886Z,2.50
2023-06-27T18:21:14.414Z,12.00
2023-06-27T18:23:47.138Z,26.40
2023-06-27T18:26:20.327Z,17.90
2023-06-27T18:28:52.474Z,6.90
2023-06-27T18:31:25.502Z,5.90
2023-06-27T18:33:57.790Z,5.30
2023-06-27T18:36:29.930Z,5.10
2023-06-27T18:39:06.385Z,4.10
2023-06-27T18:41:39.287Z,4.10
2023-06-27T18:44:11.958Z,4.20
2023-06-27T18:46:44.020Z,3.30
2023-06-27T18:49:16.213Z,3.30
2023-06-27T18:51:48.063Z,3.60
2023-06-27T18:54:20.057Z,3.60
2023-06-27T18:56:52.082Z,4.20
2023-06-27T18:59:24.233Z,3.50
2023-06-27T19:01:56.418Z,3.40
2023-06-27T19:04:28.831Z,3.80
2023-06-27T19:07:00.844Z,3.10
2023-06-27T19:09:32.701Z,3.30
2023-06-27T19:12:04.917Z,3.00
2023-06-27T19:14:36.908Z,2.90
2023-06-27T19:17:13.445Z,3.30
2023-06-27T19:19:50.990Z,3.60
2023-06-27T19:22:23.874Z,2.70
2023-06-27T19:24:56.492Z,2.80
2023-06-27T19:27:28.396Z,3.20
2023-06-27T19:30:00.413Z,3.60
2023-06-27T19:32:32.813Z,3.40
2023-06-27T19:35:04.761Z,3.30
2023-06-27T19:37:37.675Z,2.70
2023-06-27T19:40:11.940Z,2.70
2023-06-27T19:42:43.944Z,2.50
2023-06-27T19:45:16.048Z,2.70
2023-06-27T19:47:48.313Z,2.40
2023-06-27T19:50:20.713Z,2.70
2023-06-27T19:52:52.807Z,2.70
2023-06-27T19:55:25.290Z,2.10
2023-06-27T19:57:59.473Z,2.20
2023-06-27T20:00:31.617Z,2.50
2023-06-27T20:03:03.673Z,2.20
2023-06-27T20:05:40.314Z,1.70
2023-06-27T20:08:14.036Z,2.10
2023-06-27T20:10:46.018Z,1.70
2023-06-27T20:13:17.869Z,2.10
2023-06-27T20:15:51.003Z,2.00
2023-06-27T20:18:23.496Z,2.10
2023-06-27T20:20:55.549Z,2.00
2023-06-27T20:23:28.004Z,1.70
2023-06-27T20:25:59.932Z,1.90
2023-06-27T20:28:31.821Z,2.00
2023-06-27T20:31:03.917Z,1.90
2023-06-27T20:33:36.215Z,1.80
2023-06-27T20:36:08.965Z,1.50
2023-06-27T20:38:41.892Z,1.70
2023-06-27T20:41:16.430Z,1.60
2023-06-27T20:43:48.819Z,1.50
2023-06-27T20:46:20.686Z,1.90
2023-06-27T20:48:52.833Z,1.10
2023-06-27T20:51:24.540Z,1.90
2023-06-27T20:53:56.720Z,2.00
2023-06-27T20:56:28.768Z,1.90
2023-06-27T20:59:00.704Z,1.80
2023-06-27T21:01:34.114Z,2.00
2023-06-27T21:04:07.223Z,1.90
2023-06-27T21:06:39.149Z,2.10
2023-06-27T21:09:11.013Z,2.30
2023-06-27T21:11:43.454Z,2.50
2023-06-27T21:14:15.315Z,2.50
2023-06-27T21:16:47.038Z,2.20
2023-06-27T21:19:18.843Z,2.20
2023-06-27T21:21:51.409Z,2.00
2023-06-27T21:24:23.402Z,2.10
2023-06-27T21:26:55.474Z,2.10
2023-06-27T21:29:27.328Z,1.90
2023-06-27T21:31:59.534Z,2.50
2023-06-27T21:34:31.729Z,2.70
2023-06-27T21:37:03.727Z,2.60
2023-06-27T21:39:35.828Z,2.70
2023-06-27T21:42:08.871Z,2.70
2023-06-27T21:44:40.964Z,2.80
2023-06-27T21:47:13.033Z,2.30
2023-06-27T21:49:48.484Z,2.20
2023-06-27T21:52:21.025Z,2.60
2023-06-27T21:54:53.136Z,2.10
2023-06-27T21:57:25.306Z,2.20
2023-06-27T21:59:57.211Z,1.80
2023-06-27T22:02:30.823Z,2.10
2023-06-27T22:05:03.669Z,1.80
2023-06-27T22:07:36.198Z,1.90
2023-06-27T22:10:09.615Z,2.10
2023-06-27T22:12:41.959Z,1.90
2023-06-27T22:15:14.764Z,2.10
2023-06-27T22:17:49.811Z,2.30
2023-06-27T22:20:22.310Z,2.30
2023-06-27T22:22:57.990Z,1.90
2023-06-27T22:25:30.938Z,2.20
2023-06-27T22:28:03.809Z,2.50
2023-06-27T22:30:36.645Z,2.10
2023-06-27T22:33:08.749Z,2.10
2023-06-27T22:35:40.813Z,2.00
2023-06-27T22:38:13.152Z,1.90
2023-06-27T22:40:45.533Z,1.50
2023-06-27T22:43:17.577Z,2.50
2023-06-27T22:45:49.906Z,2.00
2023-06-27T22:48:22.138Z,2.60
2023-06-27T22:50:55.761Z,1.70
2023-06-27T22:53:28.611Z,2.20
2023-06-27T22:56:03.615Z,3.30
2023-06-27T22:58:35.939Z,2.20
2023-06-27T23:01:08.697Z,2.00
2023-06-27T23:03:41.024Z,2.60
2023-06-27T23:06:13.094Z,2.00
2023-06-27T23:08:45.523Z,2.20
2023-06-27T23:11:19.316Z,2.40
2023-06-27T23:13:53.035Z,2.20
2023-06-27T23:16:25.157Z,2.00
2023-06-27T23:18:59.803Z,2.50
2023-06-27T23:21:34.376Z,1.80
2023-06-27T23:24:10.299Z,1.80
2023-06-27T23:26:43.972Z,2.50
2023-06-27T23:29:18.033Z,1.90
2023-06-27T23:31:51.030Z,1.60
2023-06-27T23:34:24.745Z,1.50
2023-06-27T23:36:57.277Z,2.00
2023-06-27T23:39:29.371Z,2.10
2023-06-27T23:42:01.445Z,1.70
2023-06-27T23:44:33.479Z,2.20
2023-06-27T23:47:05.305Z,1.60
2023-06-27T23:49:37.606Z,1.90
2023-06-27T23:52:10.504Z,1.70
2023-06-27T23:54:42.476Z,1.80
2023-06-27T23:57:14.398Z,1.80
2023-06-27T23:59:46.402Z,1.50
